17NK weather

Re-Dun Field
Reading Center, New York, United States

Public forecast

Using degrees Fahrenheit for public forecast. Weather courtesy of forecast.io.

Closest aviation weather report (METAR) to Re-Dun Field

Closest report is Penn Yan Airport, 7.5 nm (13.8 km) NW. Retrieved 2019/11/18 02:41 UTC (0 seconds ago):

KPEO 180241Z AUTO 13004KT 10SM SCT022 OVC034 02/M03 A3004 RMK AO2 T00171033

Closest aviation forecast (TAF) to Re-Dun Field

Closest forecast is Ithaca Tompkins Regional Airport, 21.9 nm (40.5 km) E. Retrieved 2019-11-18 00:30 UTC (2 hours ago):

TAF KITH 172329Z 1800/1824 14009KT P6SM FEW035 SCT050 FM180600 12006KT P6SM FEW030 BKN040 FM181200 13005KT P6SM OVC025 FM182000 VRB03KT P6SM BKN018 OVC030